createdAt,value
2022-08-16T00:06:29.697Z,8.55
2022-08-16T00:17:05.988Z,8.85
2022-08-16T00:26:57.630Z,8.48
2022-08-16T00:37:03.564Z,9.10
2022-08-16T00:47:12.963Z,10.50
2022-08-16T01:07:20.828Z,9.07
2022-08-16T01:17:28.048Z,9.05
2022-08-16T01:27:45.974Z,10.48
2022-08-16T01:37:54.293Z,9.13
2022-08-16T01:47:58.999Z,9.88
2022-08-16T01:58:02.873Z,10.98
2022-08-16T02:08:07.725Z,12.82
2022-08-16T02:18:31.111Z,17.48
2022-08-16T02:28:38.126Z,22.98
2022-08-16T02:38:48.294Z,25.67
2022-08-16T02:48:54.755Z,33.35
2022-08-16T02:59:11.477Z,36.33
2022-08-16T03:09:19.161Z,36.45
2022-08-16T03:19:22.857Z,34.13
2022-08-16T03:29:30.318Z,36.78
2022-08-16T03:39:34.322Z,35.40
2022-08-16T03:49:52.001Z,34.45
2022-08-16T03:59:55.800Z,36.25
2022-08-16T04:10:00.381Z,38.17
2022-08-16T04:20:33.870Z,39.17
2022-08-16T04:30:40.936Z,37.70
2022-08-16T04:40:44.358Z,38.97
2022-08-16T04:50:52.711Z,37.65
2022-08-16T05:00:55.768Z,33.92
2022-08-16T05:11:05.371Z,33.03
2022-08-16T05:21:11.343Z,31.35
2022-08-16T05:31:17.446Z,28.00
2022-08-16T05:41:20.619Z,26.67
2022-08-16T05:51:37.609Z,22.90
2022-08-16T06:01:45.016Z,23.05
2022-08-16T06:11:49.653Z,22.77
2022-08-16T06:21:54.911Z,20.63
2022-08-16T06:32:00.517Z,20.48
2022-08-16T06:42:04.266Z,20.48
2022-08-16T06:52:55.483Z,17.48
2022-08-16T07:02:34.561Z,17.65
2022-08-16T07:12:47.401Z,14.70
2022-08-16T07:23:02.866Z,12.90
2022-08-16T07:33:51.523Z,13.57
2022-08-16T07:43:41.604Z,12.52
2022-08-16T07:54:04.135Z,9.30
2022-08-16T08:04:14.272Z,10.52
2022-08-16T08:14:29.725Z,8.35
2022-08-16T08:24:34.991Z,10.85
2022-08-16T08:34:41.284Z,9.85
2022-08-16T08:44:49.492Z,11.68
2022-08-16T08:54:54.069Z,9.15
2022-08-16T09:04:57.292Z,10.82
2022-08-16T09:15:02.296Z,11.45
2022-08-16T09:25:09.944Z,12.30
2022-08-16T09:35:16.178Z,13.50
2022-08-16T09:45:19.372Z,11.23
2022-08-16T09:55:26.776Z,14.83
2022-08-16T10:05:37.479Z,14.65
2022-08-16T10:15:44.495Z,14.77
2022-08-16T10:36:38.771Z,13.30
2022-08-16T10:46:43.325Z,7.85
2022-08-16T10:56:55.523Z,8.70
2022-08-16T11:07:07.982Z,5.78
2022-08-16T11:17:13.732Z,7.40
2022-08-16T11:27:23.258Z,8.10
2022-08-16T11:38:04.494Z,20.67
2022-08-16T11:47:51.734Z,31.15
2022-08-16T11:57:57.407Z,53.25
2022-08-16T12:08:01.273Z,58.63
2022-08-16T12:18:10.836Z,58.88
2022-08-16T12:28:36.857Z,59.78
2022-08-16T12:38:48.984Z,57.67
2022-08-16T12:48:58.545Z,65.47
2022-08-16T12:59:09.581Z,58.90
2022-08-16T13:09:42.085Z,64.60
2022-08-16T13:30:35.691Z,57.97
2022-08-16T13:40:35.992Z,75.68
2022-08-16T13:50:51.453Z,74.97
2022-08-16T14:00:56.652Z,71.47
2022-08-16T14:11:00.689Z,64.45
2022-08-16T14:21:05.467Z,50.90
2022-08-16T14:31:11.527Z,52.42
2022-08-16T14:41:16.865Z,49.38
2022-08-16T14:51:20.897Z,43.55
2022-08-16T15:01:57.623Z,41.60
2022-08-16T15:11:50.448Z,40.45
2022-08-16T15:21:55.020Z,39.03
2022-08-16T15:32:00.993Z,40.20
2022-08-16T15:42:11.209Z,37.13
2022-08-16T15:52:20.686Z,36.78
2022-08-16T16:02:31.394Z,38.50
2022-08-16T16:12:53.996Z,39.10
2022-08-16T16:23:01.251Z,42.78
2022-08-16T16:33:04.440Z,44.88
2022-08-16T16:43:09.477Z,44.67
2022-08-16T16:53:18.141Z,48.85
2022-08-16T17:03:29.120Z,49.53
2022-08-16T17:13:33.105Z,49.10
2022-08-16T17:23:59.134Z,50.47
2022-08-16T17:34:01.187Z,50.15
2022-08-16T17:44:25.698Z,47.53
2022-08-16T17:54:30.769Z,44.03
2022-08-16T18:04:48.451Z,44.53
2022-08-16T18:14:54.918Z,39.30
2022-08-16T18:25:05.570Z,47.17
2022-08-16T18:35:09.273Z,38.85
2022-08-16T18:45:13.825Z,38.33
2022-08-16T18:55:16.961Z,36.53
2022-08-16T19:05:24.573Z,33.90
2022-08-16T19:15:29.233Z,32.72
2022-08-16T19:25:46.409Z,28.98
2022-08-16T19:35:51.593Z,27.15
2022-08-16T19:45:56.088Z,22.45
2022-08-16T19:55:59.104Z,24.13
2022-08-16T20:06:03.452Z,25.25
2022-08-16T20:16:06.763Z,29.10
2022-08-16T20:26:11.305Z,38.75
2022-08-16T20:36:16.021Z,51.22
2022-08-16T20:46:21.629Z,58.10
2022-08-16T20:56:24.877Z,64.00
2022-08-16T21:06:29.774Z,67.03
2022-08-16T21:16:33.440Z,75.22
2022-08-16T21:26:39.033Z,83.93
2022-08-16T21:36:42.480Z,83.07
2022-08-16T21:46:47.596Z,91.72
2022-08-16T21:56:51.591Z,85.75
2022-08-16T22:06:56.114Z,88.38
2022-08-16T22:16:59.121Z,86.38
2022-08-16T22:27:22.337Z,86.30
2022-08-16T22:38:50.243Z,86.90
2022-08-16T22:48:08.131Z,88.70
2022-08-16T22:58:14.101Z,92.78
2022-08-16T23:08:32.318Z,99.78
2022-08-16T23:18:42.994Z,104.97
2022-08-16T23:28:47.583Z,111.53
2022-08-16T23:38:50.644Z,112.40
2022-08-16T23:49:57.380Z,114.45
2022-08-16T23:59:18.463Z,123.00
